Time;durP1;ratioP1;P1;durP2;ratioP2;P2;SDS_P1;SDS_P2;PMS_P1;PMS_P2;Temp;Humidity;BMP_temperature;BMP_pressure;BME280_temperature;BME280_humidity;BME280_pressure;Samples;Min_cycle;Max_cycle;Signal;HPM_P1;HPM_P2
2023/04/12 03:06:22;;;;;;;5.75;4.35;;;3.70;1.00;;;;;;5129872;23;20450;-84
2023/04/12 03:08:49;;;;;;;5.82;4.72;;;3.80;1.00;;;;;;4831695;29;20306;-83
2023/04/12 03:11:16;;;;;;;7.60;4.43;;;3.80;1.00;;;;;;4840057;29;20880;-82
2023/04/12 03:13:43;;;;;;;6.40;5.28;;;3.70;1.00;;;;;;4833946;29;20247;-84
2023/04/12 03:16:22;;;;;;;9.15;8.25;;;3.60;1.00;;;;;;4830306;29;20308;-85
2023/04/12 03:18:50;;;;;;;7.68;5.72;;;3.60;1.00;;;;;;4830946;29;20339;-84
2023/04/12 03:21:21;;;;;;;5.18;4.75;;;3.50;1.00;;;;;;4833235;29;20726;-84
2023/04/12 03:23:51;;;;;;;6.45;5.00;;;3.50;1.00;;;;;;4836569;29;20355;-83
2023/04/12 03:26:20;;;;;;;6.60;5.03;;;3.50;1.00;;;;;;4833443;29;20255;-84
2023/04/12 03:28:49;;;;;;;5.97;5.35;;;3.60;1.00;;;;;;4831814;29;20318;-84
2023/04/12 03:31:25;;;;;;;7.72;4.78;;;3.60;1.00;;;;;;4835537;29;21002;-86
2023/04/12 03:33:53;;;;;;;7.00;5.20;;;3.60;1.00;;;;;;4824936;29;20252;-85
2023/04/12 03:36:21;;;;;;;5.50;5.00;;;3.60;1.00;;;;;;4832426;29;20370;-84
2023/04/12 03:38:50;;;;;;;10.45;5.20;;;3.60;1.00;;;;;;4831684;29;21012;-83
2023/04/12 03:41:17;;;;;;;5.15;4.20;;;3.60;1.00;;;;;;4831034;29;20266;-85
2023/04/12 03:43:46;;;;;;;7.43;5.75;;;3.70;1.00;;;;;;4831472;29;20240;-84
2023/04/12 03:46:14;;;;;;;8.52;6.72;;;3.60;1.00;;;;;;4835901;29;20251;-83
2023/04/12 03:48:46;;;;;;;7.45;4.95;;;3.50;1.00;;;;;;4836831;29;20228;-84
2023/04/12 03:51:15;;;;;;;10.40;5.15;;;3.50;1.00;;;;;;4843214;29;20240;-84
2023/04/12 03:53:50;;;;;;;7.10;5.65;;;3.50;1.00;;;;;;4835758;29;20255;-85
2023/04/12 03:56:19;;;;;;;7.50;5.97;;;3.50;1.00;;;;;;4836349;29;20299;-83
2023/04/12 03:58:48;;;;;;;6.10;5.20;;;3.40;1.00;;;;;;4831004;29;20879;-82
2023/04/12 04:01:16;;;;;;;16.60;12.57;;;3.30;1.00;;;;;;4843727;29;20299;-82
2023/04/12 04:03:45;;;;;;;7.70;6.10;;;3.30;1.00;;;;;;4831452;29;20723;-81
2023/04/12 04:06:13;;;;;;;10.15;6.45;;;3.20;1.00;;;;;;4836912;29;20244;-82
2023/04/12 04:08:41;;;;;;;13.98;6.22;;;3.20;1.00;;;;;;4841259;29;20268;-82
2023/04/12 04:11:10;;;;;;;11.75;5.55;;;3.10;1.00;;;;;;4837062;29;21405;-82
2023/04/12 04:13:37;;;;;;;8.60;6.78;;;3.10;1.00;;;;;;4837060;29;20944;-83
2023/04/12 04:16:08;;;;;;;7.88;6.07;;;3.10;1.00;;;;;;4842604;29;20253;-82
2023/04/12 04:18:38;;;;;;;9.88;6.13;;;3.10;1.00;;;;;;4831135;29;20252;-82
2023/04/12 04:21:09;;;;;;;8.18;6.43;;;3.20;1.00;;;;;;4829536;29;21234;-82
2023/04/12 04:23:38;;;;;;;7.70;6.00;;;3.20;1.00;;;;;;4835057;29;20689;-83
2023/04/12 04:26:09;;;;;;;7.63;6.53;;;3.20;1.00;;;;;;4835379;29;20244;-82
2023/04/12 04:28:44;;;;;;;9.48;6.80;;;3.10;1.00;;;;;;4839105;29;20850;-82
2023/04/12 04:31:16;;;;;;;11.18;7.65;;;3.20;1.00;;;;;;4842350;29;21109;-83
2023/04/12 04:33:43;;;;;;;9.02;6.85;;;3.10;1.00;;;;;;4842415;29;21107;-82
2023/04/12 04:36:11;;;;;;;11.45;6.72;;;3.10;1.00;;;;;;4835556;29;20335;-84
2023/04/12 04:38:39;;;;;;;7.57;6.57;;;3.10;1.00;;;;;;4836410;29;20228;-83
2023/04/12 04:41:11;;;;;;;10.23;6.35;;;3.10;1.00;;;;;;4833544;29;20266;-82
2023/04/12 04:43:45;;;;;;;15.75;6.60;;;3.10;1.00;;;;;;4831226;29;21619;-84
2023/04/12 04:46:15;;;;;;;8.38;5.90;;;3.10;1.00;;;;;;4836116;29;20243;-82
2023/04/12 04:48:44;;;;;;;6.38;5.63;;;3.20;1.00;;;;;;4837163;29;21441;-85
2023/04/12 04:51:13;;;;;;;12.13;7.65;;;3.30;1.00;;;;;;4834304;29;20244;-82
2023/04/12 04:53:41;;;;;;;9.15;6.93;;;3.20;1.00;;;;;;4835203;29;21046;-83
2023/04/12 04:56:11;;;;;;;11.30;6.43;;;3.20;1.00;;;;;;4824123;29;20261;-82
2023/04/12 04:58:41;;;;;;;13.45;6.38;;;3.20;1.00;;;;;;4836198;29;20248;-82
2023/04/12 05:01:12;;;;;;;5.97;5.38;;;3.30;1.00;;;;;;4835975;29;20240;-83
2023/04/12 05:03:40;;;;;;;6.35;5.75;;;3.30;1.00;;;;;;4835245;29;20248;-85
2023/04/12 05:06:09;;;;;;;8.90;6.40;;;3.30;1.00;;;;;;4840136;29;20280;-85
2023/04/12 05:08:37;;;;;;;8.82;6.68;;;3.30;1.00;;;;;;4847286;29;20228;-84
2023/04/12 05:11:05;;;;;;;9.85;7.03;;;3.40;1.00;;;;;;4846556;29;20366;-84
2023/04/12 05:13:32;;;;;;;7.32;6.45;;;3.50;1.00;;;;;;4861890;29;21414;-84
2023/04/12 05:16:10;;;;;;;9.00;7.43;;;3.50;1.00;;;;;;4850908;29;20404;-86
2023/04/12 05:18:37;;;;;;;8.90;6.50;;;3.50;1.00;;;;;;4842525;29;20268;-84
2023/04/12 05:21:07;;;;;;;8.75;6.43;;;3.50;1.00;;;;;;4841117;29;20248;-85
2023/04/12 05:23:37;;;;;;;7.47;6.20;;;3.50;1.00;;;;;;4843115;29;20248;-85
2023/04/12 05:26:05;;;;;;;7.93;6.45;;;3.50;1.00;;;;;;4844454;29;20989;-85
2023/04/12 05:28:35;;;;;;;7.38;6.60;;;3.60;1.00;;;;;;4848724;29;21992;-86
2023/04/12 05:31:05;;;;;;;8.10;6.82;;;3.60;1.00;;;;;;4846789;29;20342;-85
2023/04/12 05:33:36;;;;;;;10.02;6.45;;;3.70;1.00;;;;;;4848800;29;20299;-85
2023/04/12 05:36:07;;;;;;;7.30;6.47;;;3.70;1.00;;;;;;4837339;29;21521;-84
2023/04/12 05:38:35;;;;;;;10.75;6.13;;;3.80;1.00;;;;;;4841028;29;21416;-84
2023/04/12 05:41:04;;;;;;;7.75;6.50;;;3.80;1.00;;;;;;4841445;29;20269;-84
2023/04/12 05:43:32;;;;;;;13.13;9.23;;;3.90;1.00;;;;;;4842273;29;20313;-85
2023/04/12 05:46:00;;;;;;;8.63;6.32;;;3.90;1.00;;;;;;4838064;29;20266;-86
2023/04/12 05:48:31;;;;;;;9.25;6.38;;;4.00;1.00;;;;;;4839517;29;21138;-86
2023/04/12 05:51:05;;;;;;;6.80;5.70;;;4.10;1.00;;;;;;4840136;29;20857;-85
2023/04/12 05:53:33;;;;;;;16.80;8.82;;;4.20;1.00;;;;;;4841508;29;20448;-86
2023/04/12 05:56:01;;;;;;;6.53;5.90;;;4.30;1.00;;;;;;4848845;29;20345;-83
2023/04/12 05:58:32;;;;;;;8.75;6.28;;;4.50;1.00;;;;;;4846136;29;20244;-88
2023/04/12 06:00:59;;;;;;;11.82;7.38;;;4.60;1.00;;;;;;4849089;29;20655;-84
2023/04/12 06:03:47;;;;;;;8.63;6.80;;;4.70;1.00;;;;;;4861974;29;20237;-87
2023/04/12 06:06:17;;;;;;;7.63;6.63;;;4.90;1.00;;;;;;4839032;29;20236;-87
2023/04/12 06:08:50;;;;;;;7.88;6.68;;;5.10;1.00;;;;;;4857894;29;20340;-84
2023/04/12 06:11:20;;;;;;;8.90;7.35;;;5.10;1.00;;;;;;4852612;29;20247;-82
2023/04/12 06:13:48;;;;;;;17.20;8.38;;;5.30;1.00;;;;;;4842428;29;21262;-81
2023/04/12 06:16:15;;;;;;;11.50;6.72;;;5.50;1.00;;;;;;4847443;29;20297;-79
2023/04/12 06:18:43;;;;;;;9.30;6.60;;;5.50;1.00;;;;;;4828177;29;20246;-78
2023/04/12 06:21:15;;;;;;;8.98;7.15;;;5.50;1.00;;;;;;4837874;29;20274;-81
2023/04/12 06:23:42;;;;;;;14.05;9.32;;;5.60;1.00;;;;;;4835290;29;20244;-80
2023/04/12 06:26:10;;;;;;;6.75;6.07;;;5.60;1.00;;;;;;4837374;29;20534;-80
2023/04/12 06:28:37;;;;;;;12.88;6.70;;;5.80;1.00;;;;;;4830180;29;21581;-78
2023/04/12 06:31:04;;;;;;;8.35;5.93;;;6.00;1.00;;;;;;4835106;29;20395;-78
2023/04/12 06:33:32;;;;;;;8.65;5.72;;;6.20;1.00;;;;;;4828091;29;21730;-77
2023/04/12 06:35:59;;;;;;;10.25;7.10;;;6.30;1.00;;;;;;4831829;29;21475;-79
2023/04/12 06:38:27;;;;;;;6.93;6.22;;;6.20;1.00;;;;;;4836637;29;20524;-79
2023/04/12 06:40:55;;;;;;;7.65;5.97;;;6.30;1.00;;;;;;4841318;29;20344;-77
2023/04/12 06:43:25;;;;;;;6.55;5.65;;;6.40;1.00;;;;;;4829951;29;20348;-78
2023/04/12 06:45:55;;;;;;;8.80;5.60;;;6.50;1.00;;;;;;4834021;29;20333;-79
2023/04/12 06:48:22;;;;;;;10.00;5.53;;;6.70;1.00;;;;;;4822661;29;20477;-77
2023/04/12 06:50:49;;;;;;;9.20;5.90;;;6.80;1.00;;;;;;4825287;29;20281;-79
2023/04/12 06:53:16;;;;;;;7.63;5.60;;;6.90;1.00;;;;;;4837101;29;20282;-77
2023/04/12 06:55:45;;;;;;;7.87;6.10;;;7.10;1.00;;;;;;4824784;29;20468;-78
2023/04/12 06:58:12;;;;;;;6.13;5.20;;;7.20;1.00;;;;;;4834010;29;20548;-79
2023/04/12 07:00:42;;;;;;;10.10;7.30;;;7.40;1.00;;;;;;4835510;29;20483;-82
2023/04/12 07:03:10;;;;;;;5.53;4.47;;;7.40;1.00;;;;;;4837409;29;20435;-81
2023/04/12 07:05:38;;;;;;;6.23;4.90;;;7.50;1.00;;;;;;4839230;29;20357;-82
2023/04/12 07:08:09;;;;;;;8.70;4.70;;;7.70;1.00;;;;;;4838977;29;20468;-83
2023/04/12 07:10:36;;;;;;;9.60;5.67;;;7.80;1.00;;;;;;4833973;29;20669;-82
2023/04/12 07:13:07;;;;;;;7.23;5.53;;;8.00;1.00;;;;;;4838386;29;20434;-82
2023/04/12 07:15:34;;;;;;;4.77;3.80;;;8.20;1.00;;;;;;4828532;29;20986;-82
2023/04/12 07:18:01;;;;;;;6.00;3.67;;;8.40;1.00;;;;;;4830995;29;20689;-80
2023/04/12 07:20:28;;;;;;;8.33;4.63;;;8.60;1.00;;;;;;4836002;29;20986;-86
2023/04/12 07:22:55;;;;;;;5.47;4.30;;;8.80;1.00;;;;;;4833186;29;20473;-85
2023/04/12 07:25:25;;;;;;;7.00;6.13;;;8.90;1.00;;;;;;4844290;29;20489;-85
2023/04/12 07:27:52;;;;;;;6.90;4.10;;;8.90;1.00;;;;;;4831492;29;20464;-82
2023/04/12 07:30:22;;;;;;;5.60;3.60;;;9.10;1.00;;;;;;4835819;29;21434;-81
2023/04/12 07:32:49;;;;;;;5.73;3.60;;;9.30;1.00;;;;;;4822331;29;20465;-78
2023/04/12 07:35:17;;;;;;;3.30;2.80;;;9.50;1.00;;;;;;4839066;29;20484;-83
2023/04/12 07:37:44;;;;;;;6.13;2.50;;;9.50;1.00;;;;;;4834526;29;20516;-81
2023/04/12 07:40:12;;;;;;;4.43;3.00;;;9.60;1.00;;;;;;4829562;29;21870;-80
2023/04/12 07:42:39;;;;;;;5.13;2.67;;;9.80;1.00;;;;;;4828533;29;20531;-81
2023/04/12 07:45:12;;;;;;;4.20;2.50;;;9.90;1.00;;;;;;4832175;29;20434;-80
2023/04/12 07:47:49;;;;;;;2.40;2.10;;;10.20;1.00;;;;;;4835251;29;20504;-88
2023/04/12 07:50:16;;;;;;;3.87;2.70;;;10.40;1.00;;;;;;4846868;29;21272;-84
2023/04/12 07:52:48;;;;;;;6.50;2.63;;;10.60;1.00;;;;;;4840580;29;20509;-83
2023/04/12 07:55:16;;;;;;;2.90;2.27;;;10.80;1.00;;;;;;4840148;29;20481;-87
2023/04/12 07:57:43;;;;;;;3.03;2.53;;;10.70;1.00;;;;;;4831892;29;20492;-84
2023/04/12 08:00:11;;;;;;;2.03;1.83;;;10.80;1.00;;;;;;4832734;29;20763;-82
2023/04/12 08:02:38;;;;;;;5.07;2.50;;;10.80;1.00;;;;;;4838361;29;20509;-81
2023/04/12 08:05:10;;;;;;;10.20;3.43;;;10.90;1.00;;;;;;4826739;29;20459;-79
2023/04/12 08:07:37;;;;;;;2.50;1.97;;;11.00;1.00;;;;;;4831627;29;20549;-80
2023/04/12 08:10:07;;;;;;;3.50;2.30;;;11.10;1.00;;;;;;4833346;29;21246;-81
2023/04/12 08:12:34;;;;;;;4.37;2.57;;;11.20;1.00;;;;;;4834365;29;20474;-79
2023/04/12 08:15:06;;;;;;;2.10;1.90;;;11.20;1.00;;;;;;4860682;29;20462;-80
2023/04/12 08:17:42;;;;;;;2.27;2.07;;;11.30;1.00;;;;;;4861291;29;21524;-80
2023/04/12 08:20:20;;;;;;;2.87;2.13;;;11.50;1.00;;;;;;4854755;29;20873;-81
2023/04/12 08:22:48;;;;;;;4.30;2.00;;;11.70;1.00;;;;;;4854323;29;20995;-81
2023/04/12 08:25:15;;;;;;;2.40;1.80;;;11.80;1.00;;;;;;4861765;29;20473;-82
2023/04/12 08:27:43;;;;;;;7.67;1.70;;;12.00;1.00;;;;;;4850885;29;20522;-79
2023/04/12 08:30:17;;;;;;;2.77;1.80;;;12.00;1.00;;;;;;4854416;29;20498;-77
2023/04/12 08:32:45;;;;;;;4.13;2.10;;;11.90;1.00;;;;;;4855317;29;20488;-80
2023/04/12 08:35:15;;;;;;;4.10;1.67;;;12.10;1.00;;;;;;4859021;29;20486;-80
2023/04/12 08:37:43;;;;;;;4.30;1.60;;;12.20;1.00;;;;;;4858605;29;20544;-81
2023/04/12 08:40:11;;;;;;;3.47;1.83;;;12.20;1.00;;;;;;4854572;29;20474;-81
2023/04/12 08:42:38;;;;;;;4.30;1.87;;;12.30;1.00;;;;;;4855184;29;20466;-80
2023/04/12 08:45:09;;;;;;;4.73;1.77;;;12.50;1.00;;;;;;4852313;29;20473;-78
2023/04/12 08:47:39;;;;;;;3.40;1.60;;;12.60;1.00;;;;;;4852214;29;20480;-79
2023/04/12 08:50:08;;;;;;;4.00;2.03;;;12.70;1.00;;;;;;4856026;29;20472;-81
2023/04/12 08:52:37;;;;;;;4.47;1.70;;;12.90;1.00;;;;;;4854204;29;20467;-80
2023/04/12 08:55:06;;;;;;;3.00;1.60;;;13.10;1.00;;;;;;4850167;29;20546;-79
2023/04/12 08:57:34;;;;;;;3.37;1.73;;;13.20;1.00;;;;;;4849902;29;21636;-79
2023/04/12 09:00:03;;;;;;;3.90;1.90;;;13.20;1.00;;;;;;4854543;29;20952;-80
2023/04/12 09:02:31;;;;;;;3.53;2.03;;;13.30;1.00;;;;;;4848889;29;20466;-80
2023/04/12 09:04:58;;;;;;;2.93;1.67;;;13.40;1.00;;;;;;4846770;29;20504;-80
2023/04/12 09:07:29;;;;;;;4.30;2.00;;;13.60;1.00;;;;;;4865826;29;21494;-93
2023/04/12 09:09:58;;;;;;;4.90;2.20;;;13.70;1.00;;;;;;4855174;29;20574;-80
2023/04/12 09:12:26;;;;;;;4.33;1.70;;;14.00;1.00;;;;;;4852197;29;20467;-78
2023/04/12 09:15:08;;;;;;;4.60;2.30;;;14.00;1.00;;;;;;4863962;29;21028;-79
2023/04/12 09:17:37;;;;;;;3.70;2.00;;;14.10;1.00;;;;;;4854329;29;20563;-79
2023/04/12 09:20:24;;;;;;;4.60;2.67;;;14.40;1.00;;;;;;4853545;29;20492;-80
2023/04/12 09:22:54;;;;;;;2.20;1.53;;;14.40;1.00;;;;;;4861007;29;20456;-79
2023/04/12 09:25:37;;;;;;;2.03;1.10;;;14.80;1.00;;;;;;4855908;29;20480;-79
2023/04/12 09:28:18;;;;;;;3.27;1.97;;;15.40;1.00;;;;;;4859629;29;20492;-78
2023/04/12 09:30:50;;;;;;;2.60;1.67;;;16.30;1.00;;;;;;4856382;29;21183;-78
2023/04/12 09:33:18;;;;;;;2.93;1.57;;;17.80;1.00;;;;;;4853735;29;20504;-78
2023/04/12 09:35:45;;;;;;;4.03;1.70;;;18.60;1.00;;;;;;4855250;29;20474;-81
2023/04/12 09:38:12;;;;;;;4.77;1.60;;;18.60;1.00;;;;;;4853839;29;20727;-84
2023/04/12 09:40:41;;;;;;;3.10;1.73;;;19.40;1.00;;;;;;4864311;29;20534;-83
2023/04/12 09:43:08;;;;;;;3.57;1.90;;;19.90;1.00;;;;;;4862687;29;20426;-84
2023/04/12 09:45:40;;;;;;;5.07;1.70;;;20.70;1.00;;;;;;4862338;29;20506;-84
2023/04/12 09:48:07;;;;;;;3.17;1.57;;;21.00;1.00;;;;;;4861695;29;20463;-82
2023/04/12 09:50:34;;;;;;;4.70;1.50;;;21.50;1.00;;;;;;4856418;29;20484;-85
2023/04/12 09:53:03;;;;;;;3.03;2.40;;;21.30;1.00;;;;;;4862029;29;20424;-83
2023/04/12 09:55:31;;;;;;;2.47;1.87;;;21.40;1.00;;;;;;4863027;29;20485;-84
2023/04/12 09:58:03;;;;;;;3.53;1.90;;;21.20;1.00;;;;;;4861353;29;20469;-85
2023/04/12 10:00:36;;;;;;;5.70;1.83;;;21.80;1.00;;;;;;4855321;29;20546;-86
2023/04/12 10:03:05;;;;;;;3.43;1.50;;;22.30;1.00;;;;;;4859510;29;20482;-86
2023/04/12 10:05:34;;;;;;;3.43;1.90;;;23.30;1.00;;;;;;4858891;29;20473;-85
2023/04/12 10:08:01;;;;;;;5.20;2.33;;;23.10;1.00;;;;;;4860316;29;21198;-85
2023/04/12 10:10:28;;;;;;;3.10;1.90;;;22.30;1.00;;;;;;4859919;29;20525;-86
2023/04/12 10:13:00;;;;;;;2.43;1.67;;;22.30;1.00;;;;;;4860938;29;20469;-84
2023/04/12 10:15:32;;;;;;;2.13;1.93;;;23.20;1.00;;;;;;4863488;29;20474;-84
2023/04/12 10:18:00;;;;;;;2.97;1.57;;;23.00;1.00;;;;;;4864598;29;20474;-84
2023/04/12 10:20:27;;;;;;;2.90;1.53;;;22.60;1.00;;;;;;4862166;29;20493;-85
2023/04/12 10:22:54;;;;;;;2.87;2.10;;;23.20;1.00;;;;;;4862238;29;20433;-85
2023/04/12 10:25:24;;;;;;;2.00;1.50;;;23.60;1.00;;;;;;4860084;29;21251;-86
2023/04/12 10:27:51;;;;;;;4.40;1.90;;;24.30;1.00;;;;;;4863332;29;20530;-85
2023/04/12 10:30:24;;;;;;;2.53;1.67;;;24.80;1.00;;;;;;4863152;29;20481;-85
2023/04/12 10:33:12;;;;;;;3.23;2.00;;;24.40;1.00;;;;;;4867616;29;20490;-84
2023/04/12 10:35:58;;;;;;;3.13;1.50;;;24.50;1.00;;;;;;4864612;29;20504;-84
2023/04/12 10:38:31;;;;;;;3.30;1.57;;;24.20;1.00;;;;;;4860402;29;20509;-85
2023/04/12 10:41:13;;;;;;;2.73;1.63;;;24.70;1.00;;;;;;4861108;29;20571;-85
2023/04/12 10:43:40;;;;;;;3.30;1.90;;;25.90;1.00;;;;;;4858170;29;20466;-82
2023/04/12 10:46:08;;;;;;;3.90;1.60;;;25.40;1.00;;;;;;4858525;29;20551;-82
2023/04/12 10:48:37;;;;;;;3.53;1.70;;;25.50;1.00;;;;;;4862427;29;20549;-81
2023/04/12 10:51:20;;;;;;;3.87;1.97;;;25.70;1.00;;;;;;4855562;29;20479;-82
2023/04/12 10:53:47;;;;;;;3.93;1.73;;;26.20;1.00;;;;;;4854766;29;21290;-83
2023/04/12 10:56:35;;;;;;;4.07;1.50;;;25.20;1.00;;;;;;4860407;29;20579;-81
2023/04/12 10:59:06;;;;;;;3.10;2.20;;;25.90;1.00;;;;;;4854913;29;20455;-82
2023/04/12 11:01:33;;;;;;;2.63;1.50;;;24.50;1.00;;;;;;4847613;29;20580;-80
2023/04/12 11:04:12;;;;;;;1.77;1.27;;;23.80;1.00;;;;;;4855687;29;20437;-82
2023/04/12 11:06:46;;;;;;;3.57;1.73;;;24.40;1.00;;;;;;4854193;29;21771;-82
2023/04/12 11:09:25;;;;;;;2.40;1.83;;;25.30;1.00;;;;;;4852242;29;20497;-82
2023/04/12 11:11:56;;;;;;;4.00;1.40;;;25.70;1.00;;;;;;4852785;29;20482;-82
2023/04/12 11:14:30;;;;;;;3.90;1.47;;;26.00;1.00;;;;;;4854253;29;20508;-82
2023/04/12 11:17:25;;;;;;;4.43;2.70;;;26.30;1.00;;;;;;4852640;29;20573;-79
2023/04/12 11:19:57;;;;;;;2.93;2.00;;;26.30;1.00;;;;;;4857551;29;20495;-82
2023/04/12 11:22:26;;;;;;;3.37;1.60;;;27.20;1.00;;;;;;4856719;29;20567;-83
2023/04/12 11:24:55;;;;;;;2.10;1.43;;;26.20;1.00;;;;;;4850798;29;20472;-78
2023/04/12 11:27:23;;;;;;;2.20;1.60;;;25.90;1.00;;;;;;4851773;29;20493;-77
2023/04/12 11:29:53;;;;;;;4.60;1.67;;;27.10;1.00;;;;;;4844589;29;20497;-76
2023/04/12 11:32:22;;;;;;;3.57;1.97;;;27.50;1.00;;;;;;4856969;29;20584;-78
2023/04/12 11:34:49;;;;;;;4.70;2.53;;;27.60;1.00;;;;;;4851336;29;20970;-77
2023/04/12 11:37:20;;;;;;;4.27;2.00;;;28.60;1.00;;;;;;4853599;29;20541;-76
2023/04/12 11:39:49;;;;;;;2.23;1.60;;;29.40;1.00;;;;;;4851237;29;20869;-81
2023/04/12 11:42:19;;;;;;;4.83;2.50;;;28.60;1.00;;;;;;4851658;29;20586;-78
2023/04/12 11:44:47;;;;;;;3.97;1.60;;;27.80;1.00;;;;;;4850383;29;20481;-77
2023/04/12 11:47:18;;;;;;;2.20;1.37;;;28.90;1.00;;;;;;4846100;29;20504;-78
2023/04/12 11:49:46;;;;;;;5.33;2.00;;;29.80;1.00;;;;;;4845536;29;20501;-77
2023/04/12 11:52:15;;;;;;;2.10;1.70;;;30.00;1.00;;;;;;4852700;29;20548;-77
2023/04/12 11:54:45;;;;;;;1.83;1.70;;;29.10;1.00;;;;;;4855683;29;20566;-78
2023/04/12 11:57:13;;;;;;;3.20;2.00;;;29.10;1.00;;;;;;4849013;29;20478;-77
2023/04/12 11:59:40;;;;;;;3.03;1.70;;;26.60;1.00;;;;;;4846506;29;20513;-79
2023/04/12 12:02:09;;;;;;;2.50;1.80;;;26.40;1.00;;;;;;4844047;29;20484;-78
2023/04/12 12:04:37;;;;;;;2.70;1.37;;;25.70;1.00;;;;;;4844456;29;20469;-78
2023/04/12 12:07:05;;;;;;;3.47;2.83;;;25.80;1.00;;;;;;4849544;29;20458;-78
2023/04/12 12:09:32;;;;;;;3.30;1.50;;;24.50;1.00;;;;;;4846533;29;20523;-77
2023/04/12 12:12:02;;;;;;;3.27;1.77;;;22.50;1.00;;;;;;4853582;29;20549;-77
2023/04/12 12:14:29;;;;;;;3.60;1.97;;;21.30;1.00;;;;;;4846259;29;20491;-77
2023/04/12 12:16:58;;;;;;;3.00;1.77;;;20.70;1.00;;;;;;4840277;29;20546;-80
2023/04/12 12:19:30;;;;;;;3.70;1.90;;;20.80;1.00;;;;;;4847699;29;20603;-77
2023/04/12 12:22:11;;;;;;;2.40;1.43;;;20.90;1.00;;;;;;4850322;29;20499;-79
2023/04/12 12:24:39;;;;;;;2.27;1.37;;;20.40;1.00;;;;;;4850870;29;20469;-80
2023/04/12 12:27:07;;;;;;;7.03;2.07;;;20.20;1.00;;;;;;4850224;29;21175;-79
2023/04/12 12:29:38;;;;;;;3.73;1.40;;;19.70;1.00;;;;;;4851328;29;20472;-79
2023/04/12 12:32:11;;;;;;;2.53;1.40;;;18.90;1.00;;;;;;4839741;29;20491;-78
2023/04/12 12:34:38;;;;;;;12.23;2.57;;;18.80;1.00;;;;;;4857729;29;20492;-77
2023/04/12 12:37:09;;;;;;;3.17;1.60;;;18.90;1.00;;;;;;4843772;29;21066;-77
2023/04/12 12:39:36;;;;;;;1.93;1.60;;;19.20;1.00;;;;;;4851750;29;20518;-76
2023/04/12 12:42:12;;;;;;;1.97;1.30;;;19.50;1.00;;;;;;4849342;29;20967;-78
2023/04/12 12:44:39;;;;;;;4.63;2.30;;;19.30;1.00;;;;;;4848055;29;20464;-77
2023/04/12 12:47:06;;;;;;;4.80;2.07;;;19.60;1.00;;;;;;4848311;29;21962;-77
2023/04/12 12:49:33;;;;;;;3.33;1.60;;;20.10;1.00;;;;;;4848896;29;20567;-77
2023/04/12 12:52:00;;;;;;;3.33;2.07;;;20.20;1.00;;;;;;4855768;29;20486;-78
2023/04/12 12:54:27;;;;;;;2.67;1.50;;;20.10;1.00;;;;;;4853450;29;20465;-79
2023/04/12 12:56:55;;;;;;;2.37;1.60;;;19.40;1.00;;;;;;4852028;29;20701;-78
2023/04/12 12:59:25;;;;;;;3.17;1.60;;;18.80;1.00;;;;;;4851704;29;20463;-79
2023/04/12 13:01:52;;;;;;;3.20;1.73;;;18.30;1.00;;;;;;4849902;29;20821;-80
2023/04/12 13:04:19;;;;;;;4.17;2.00;;;18.20;1.00;;;;;;4858727;29;20605;-80
2023/04/12 13:06:46;;;;;;;7.83;1.43;;;18.10;1.00;;;;;;4857030;29;20582;-81
2023/04/12 13:09:13;;;;;;;2.00;1.60;;;18.30;1.00;;;;;;4856802;29;20474;-77
2023/04/12 13:11:40;;;;;;;4.83;2.13;;;18.30;1.00;;;;;;4853943;29;20943;-78
2023/04/12 13:14:07;;;;;;;2.30;1.50;;;18.30;1.00;;;;;;4853391;29;20469;-78
2023/04/12 13:16:36;;;;;;;2.80;1.50;;;18.60;1.00;;;;;;4851358;29;20490;-80
2023/04/12 13:19:03;;;;;;;4.20;1.90;;;18.60;1.00;;;;;;4850103;29;20490;-78
2023/04/12 13:21:30;;;;;;;3.30;1.77;;;18.70;1.00;;;;;;4853902;29;21295;-79
2023/04/12 13:23:57;;;;;;;4.10;1.50;;;18.90;1.00;;;;;;4853249;29;21626;-81
2023/04/12 13:26:24;;;;;;;4.03;1.90;;;19.20;1.00;;;;;;4850890;29;20490;-77
2023/04/12 13:28:53;;;;;;;3.30;1.90;;;19.40;1.00;;;;;;4853464;29;20459;-81
2023/04/12 13:31:19;;;;;;;4.73;2.40;;;19.50;1.00;;;;;;4859000;29;20608;-80
2023/04/12 13:33:48;;;;;;;2.27;1.70;;;19.50;1.00;;;;;;4854083;29;20470;-78
2023/04/12 13:36:15;;;;;;;2.93;1.80;;;19.60;1.00;;;;;;4854086;29;20548;-79
2023/04/12 13:38:42;;;;;;;6.00;4.70;;;19.30;1.00;;;;;;4861093;29;20429;-81
2023/04/12 13:41:09;;;;;;;3.33;1.33;;;19.20;1.00;;;;;;4857109;29;20480;-80
2023/04/12 13:43:36;;;;;;;2.20;1.63;;;18.90;1.00;;;;;;4855857;29;20515;-78
2023/04/12 13:46:05;;;;;;;3.67;2.07;;;19.10;1.00;;;;;;4851457;29;21866;-77
2023/04/12 13:48:32;;;;;;;2.23;1.30;;;19.50;1.00;;;;;;4853654;29;20476;-77
2023/04/12 13:51:02;;;;;;;2.57;1.63;;;19.50;1.00;;;;;;4849505;29;20487;-77
2023/04/12 13:53:29;;;;;;;3.93;1.70;;;19.40;1.00;;;;;;4857384;29;20479;-77
2023/04/12 13:55:57;;;;;;;4.03;1.50;;;18.90;1.00;;;;;;4855579;29;20635;-79
2023/04/12 13:58:28;;;;;;;4.47;1.67;;;18.60;1.00;;;;;;4856140;29;20464;-80
2023/04/12 14:00:58;;;;;;;2.40;1.87;;;18.00;1.00;;;;;;4853737;29;20539;-78
2023/04/12 14:03:26;;;;;;;5.57;1.60;;;18.40;1.00;;;;;;4858936;29;20484;-80
2023/04/12 14:05:55;;;;;;;3.43;2.20;;;18.30;1.00;;;;;;4850235;29;20631;-78
2023/04/12 14:08:23;;;;;;;3.07;1.33;;;18.30;1.00;;;;;;4857174;29;20444;-79
2023/04/12 14:10:50;;;;;;;2.10;1.60;;;17.70;1.00;;;;;;4850178;29;20871;-78
2023/04/12 14:13:17;;;;;;;3.40;2.20;;;17.00;1.00;;;;;;4851049;29;20942;-77
2023/04/12 14:15:45;;;;;;;4.90;2.20;;;16.90;1.00;;;;;;4854503;29;20521;-77
2023/04/12 14:18:12;;;;;;;3.00;1.60;;;16.70;1.00;;;;;;4850825;29;20482;-80
2023/04/12 14:20:39;;;;;;;3.33;2.20;;;16.70;1.00;;;;;;4853522;29;20498;-79
2023/04/12 14:23:06;;;;;;;3.87;2.00;;;16.50;1.00;;;;;;4856881;29;20467;-80
2023/04/12 14:25:39;;;;;;;3.90;1.40;;;16.30;1.00;;;;;;4855189;29;21168;-79
2023/04/12 14:28:06;;;;;;;4.90;2.13;;;16.10;1.00;;;;;;4853043;29;20480;-80
2023/04/12 14:30:34;;;;;;;5.93;1.60;;;16.20;1.00;;;;;;4849136;29;20650;-79
2023/04/12 14:33:01;;;;;;;3.03;1.60;;;16.10;1.00;;;;;;4851944;29;20461;-78
2023/04/12 14:35:28;;;;;;;2.57;1.63;;;16.00;1.00;;;;;;4855061;29;20466;-80
2023/04/12 14:37:55;;;;;;;3.00;1.53;;;15.90;1.00;;;;;;4834326;29;20657;-82
2023/04/12 14:40:23;;;;;;;3.63;2.30;;;16.00;1.00;;;;;;4849027;29;20480;-81
2023/04/12 14:42:55;;;;;;;3.07;2.00;;;15.90;1.00;;;;;;4864246;29;20445;-83
2023/04/12 14:45:22;;;;;;;3.90;1.70;;;15.70;1.00;;;;;;4854707;29;20496;-77
2023/04/12 14:47:57;;;;;;;3.73;1.70;;;15.50;1.00;;;;;;4836421;29;21659;-81
2023/04/12 14:50:27;;;;;;;5.20;1.80;;;15.50;1.00;;;;;;4839499;29;20521;-81
2023/04/12 14:52:54;;;;;;;3.20;2.30;;;15.50;1.00;;;;;;4858493;29;20580;-79
2023/04/12 14:55:21;;;;;;;4.13;1.70;;;15.40;1.00;;;;;;4850854;29;20548;-79
2023/04/12 14:57:48;;;;;;;3.40;1.83;;;15.30;1.00;;;;;;4857971;29;20449;-80
2023/04/12 15:00:19;;;;;;;2.50;2.07;;;15.20;1.00;;;;;;4854037;29;20480;-81
2023/04/12 15:02:49;;;;;;;3.53;1.73;;;15.20;1.00;;;;;;4856187;29;20477;-80
2023/04/12 15:05:16;;;;;;;2.13;1.90;;;15.20;1.00;;;;;;4850091;29;20477;-83
2023/04/12 15:07:43;;;;;;;3.27;1.50;;;15.30;1.00;;;;;;4851905;29;20474;-77
2023/04/12 15:10:13;;;;;;;2.30;1.77;;;15.20;1.00;;;;;;4862369;29;20520;-77
2023/04/12 15:12:39;;;;;;;3.40;2.37;;;15.10;1.00;;;;;;4858821;29;20571;-78
2023/04/12 15:15:10;;;;;;;2.20;1.53;;;15.00;1.00;;;;;;4862129;29;20552;-79
2023/04/12 15:17:38;;;;;;;2.20;1.73;;;14.80;1.00;;;;;;4859304;29;20472;-78
2023/04/12 15:20:10;;;;;;;5.77;1.70;;;14.90;1.00;;;;;;4860093;29;20546;-78
2023/04/12 15:22:37;;;;;;;4.50;2.27;;;14.80;1.00;;;;;;4860460;29;20496;-78
2023/04/12 15:25:06;;;;;;;2.60;1.77;;;14.90;1.00;;;;;;4864015;29;20480;-77
2023/04/12 15:27:34;;;;;;;11.00;2.17;;;14.80;1.00;;;;;;4860640;29;20517;-80
2023/04/12 15:30:02;;;;;;;3.33;1.87;;;14.80;1.00;;;;;;4859937;29;20584;-79
2023/04/12 15:32:31;;;;;;;5.13;2.40;;;14.70;1.00;;;;;;4864391;29;20476;-79
2023/04/12 15:35:00;;;;;;;3.53;2.17;;;14.50;1.00;;;;;;4859903;29;20855;-79
2023/04/12 15:37:27;;;;;;;2.73;1.97;;;14.10;1.00;;;;;;4854621;29;21217;-79
2023/04/12 15:39:55;;;;;;;2.43;2.13;;;14.00;1.00;;;;;;4859041;29;20513;-77
2023/04/12 15:42:22;;;;;;;3.30;3.00;;;13.70;1.00;;;;;;4856566;29;20467;-77
2023/04/12 15:44:49;;;;;;;2.80;2.33;;;13.60;1.00;;;;;;4856802;29;20494;-78
2023/04/12 15:47:17;;;;;;;3.70;3.20;;;13.40;1.00;;;;;;4856110;29;20468;-79
2023/04/12 15:49:43;;;;;;;3.63;2.50;;;13.30;1.00;;;;;;4858056;29;20510;-79
2023/04/12 15:52:12;;;;;;;4.33;3.37;;;13.20;1.00;;;;;;4859193;29;20547;-79
2023/04/12 15:54:41;;;;;;;4.20;3.13;;;13.20;1.00;;;;;;4848237;29;20580;-79
2023/04/12 15:57:10;;;;;;;3.30;2.20;;;13.20;1.00;;;;;;4857828;29;20459;-81
2023/04/12 15:59:38;;;;;;;4.63;2.83;;;13.10;1.00;;;;;;4856583;29;20484;-80
2023/04/12 16:02:08;;;;;;;4.10;2.83;;;13.10;1.00;;;;;;4858000;29;20462;-81
2023/04/12 16:04:35;;;;;;;4.10;3.07;;;13.00;1.00;;;;;;4857724;29;20613;-81
2023/04/12 16:07:03;;;;;;;3.87;3.17;;;12.80;1.00;;;;;;4847519;29;20468;-82
2023/04/12 16:09:32;;;;;;;2.60;2.40;;;12.50;1.00;;;;;;4847666;29;20479;-82
2023/04/12 16:12:00;;;;;;;3.50;3.20;;;12.30;1.00;;;;;;4845610;29;20459;-81
2023/04/12 16:14:27;;;;;;;3.27;2.97;;;12.10;1.00;;;;;;4846295;29;20482;-81
2023/04/12 16:16:54;;;;;;;3.57;3.27;;;12.00;1.00;;;;;;4845217;29;20570;-81